Annandale, New York
Current Conditions -  °F | °C
As of 4:53 AM on Thursday 29 Jan 2015 (Local Time) from KPOU Reporting Station
Clear Clear  
Wind Chill: -18°   Ceiling: Unl
Heat Index: -18°   Visibility: 10mi
Dew Point: -22°   Wind: 0mph
Humidity: 72%   Direction: NA
Pressure: 30.33"   Gusts: NA
Location:  42.0124°N, 73.8998°W
Report Text: KPOU 290953Z AUTO 00000KT 10SM CLR M18/M22 A3033 RMK AO2 SLP271 I1000 T11831222 TSNO
Loading
Personal Weather Stations






























Interactive Weather Map New forecast layout! Learn more

10-Day Weather Forecast

Advertisements
Track Severe Weather on mobile